Time;durP1;ratioP1;P1;durP2;ratioP2;P2;SDS_P1;SDS_P2;PMS_P1;PMS_P2;Temp;Humidity;BMP_temperature;BMP_pressure;BME280_temperature;BME280_humidity;BME280_pressure;Samples;Min_cycle;Max_cycle;Signal;HPM_P1;HPM_P2
2021/03/29 00:01:53;;;;;;;;;;;19.20;38.00;;;;;;462949;257;1069;-45
2021/03/29 00:03:54;;;;;;;;;;;19.20;38.00;;;;;;462861;257;1155;-45
2021/03/29 00:05:56;;;;;;;;;;;19.20;38.00;;;;;;463365;257;1317;-45
2021/03/29 00:07:57;;;;;;;;;;;19.10;38.10;;;;;;463006;257;1065;-45
2021/03/29 00:09:58;;;;;;;;;;;19.10;38.20;;;;;;463073;257;1073;-45
2021/03/29 00:11:59;;;;;;;;;;;19.10;38.20;;;;;;463005;257;1086;-45
2021/03/29 00:14:01;;;;;;;;;;;19.00;38.20;;;;;;462944;257;1084;-44
2021/03/29 00:16:02;;;;;;;;;;;19.00;38.20;;;;;;462846;257;2154;-45
2021/03/29 00:18:04;;;;;;;;;;;19.00;38.30;;;;;;462831;257;1090;-45
2021/03/29 00:20:05;;;;;;;;;;;19.00;38.30;;;;;;462825;257;1212;-45
2021/03/29 00:22:06;;;;;;;;;;;19.00;38.30;;;;;;462783;257;1085;-45
2021/03/29 00:24:08;;;;;;;;;;;19.00;38.20;;;;;;462969;257;1058;-45
2021/03/29 00:26:09;;;;;;;;;;;19.00;38.30;;;;;;463257;257;1238;-45
2021/03/29 00:28:10;;;;;;;;;;;18.90;38.30;;;;;;462810;257;1129;-45
2021/03/29 00:30:11;;;;;;;;;;;18.90;38.40;;;;;;462903;257;1094;-45
2021/03/29 00:32:13;;;;;;;;;;;18.90;38.30;;;;;;462908;257;1086;-45
2021/03/29 00:34:14;;;;;;;;;;;18.90;38.40;;;;;;462885;257;1181;-45
2021/03/29 00:36:15;;;;;;;;;;;18.90;38.40;;;;;;462888;257;2211;-45
2021/03/29 00:38:16;;;;;;;;;;;18.90;38.40;;;;;;462897;257;1081;-45
2021/03/29 00:40:18;;;;;;;;;;;18.90;38.40;;;;;;462824;257;1066;-45
2021/03/29 00:42:19;;;;;;;;;;;18.80;38.40;;;;;;462780;257;1208;-45
2021/03/29 00:44:20;;;;;;;;;;;18.80;38.50;;;;;;462908;257;1095;-45
2021/03/29 00:46:22;;;;;;;;;;;18.70;38.60;;;;;;463092;257;1089;-45
2021/03/29 00:48:23;;;;;;;;;;;18.70;38.60;;;;;;462975;257;1060;-45
2021/03/29 00:50:24;;;;;;;;;;;18.70;38.60;;;;;;462873;257;1218;-45
2021/03/29 00:52:25;;;;;;;;;;;18.80;38.60;;;;;;462916;257;1091;-45
2021/03/29 00:54:27;;;;;;;;;;;18.70;38.60;;;;;;463041;257;1135;-45
2021/03/29 00:56:28;;;;;;;;;;;18.60;38.70;;;;;;462919;257;2156;-45
2021/03/29 00:58:29;;;;;;;;;;;18.70;38.80;;;;;;462922;257;1112;-45
2021/03/29 01:00:31;;;;;;;;;;;18.60;38.80;;;;;;462997;257;1102;-45
2021/03/29 01:02:32;;;;;;;;;;;18.60;38.80;;;;;;463214;257;1278;-45
2021/03/29 01:04:33;;;;;;;;;;;18.60;38.90;;;;;;463023;257;1352;-45
2021/03/29 01:06:35;;;;;;;;;;;18.60;39.00;;;;;;462792;257;1112;-45
2021/03/29 01:08:36;;;;;;;;;;;18.60;38.90;;;;;;462798;257;1173;-45
2021/03/29 01:10:37;;;;;;;;;;;18.60;38.90;;;;;;462922;257;1251;-45
2021/03/29 01:12:38;;;;;;;;;;;18.60;38.80;;;;;;462790;257;1095;-45
2021/03/29 01:14:40;;;;;;;;;;;18.60;38.90;;;;;;462949;257;1106;-45
2021/03/29 01:16:41;;;;;;;;;;;18.50;38.90;;;;;;462946;257;2206;-45
2021/03/29 01:18:43;;;;;;;;;;;18.50;38.90;;;;;;463095;257;1099;-45
2021/03/29 01:20:44;;;;;;;;;;;18.50;39.00;;;;;;462916;257;1385;-45
2021/03/29 01:22:45;;;;;;;;;;;18.50;39.00;;;;;;462989;257;1099;-45
2021/03/29 01:24:46;;;;;;;;;;;18.40;39.00;;;;;;463086;257;1087;-45
2021/03/29 01:26:48;;;;;;;;;;;18.50;39.00;;;;;;463211;257;1086;-45
2021/03/29 01:28:49;;;;;;;;;;;18.50;39.00;;;;;;463305;257;1026;-45
2021/03/29 01:30:51;;;;;;;;;;;18.50;39.00;;;;;;463005;257;1072;-45
2021/03/29 01:32:52;;;;;;;;;;;18.50;39.00;;;;;;462907;257;1112;-45
2021/03/29 01:34:53;;;;;;;;;;;18.40;39.00;;;;;;463017;257;1164;-44
2021/03/29 01:36:54;;;;;;;;;;;18.40;39.00;;;;;;463010;257;2207;-45
2021/03/29 01:38:56;;;;;;;;;;;18.40;38.90;;;;;;462826;257;1116;-45
2021/03/29 01:40:57;;;;;;;;;;;18.40;39.00;;;;;;462795;257;1212;-45
2021/03/29 01:42:58;;;;;;;;;;;18.40;39.00;;;;;;462952;257;1079;-45
2021/03/29 01:45:01;;;;;;;;;;;18.40;39.00;;;;;;462969;257;1080;-45
2021/03/29 01:47:01;;;;;;;;;;;18.40;39.10;;;;;;462841;257;1334;-45
2021/03/29 01:49:02;;;;;;;;;;;18.40;39.10;;;;;;463114;257;1127;-45
2021/03/29 01:51:03;;;;;;;;;;;18.40;39.20;;;;;;462840;254;1152;-45
2021/03/29 01:53:05;;;;;;;;;;;18.30;39.20;;;;;;463320;257;1076;-45
2021/03/29 01:55:06;;;;;;;;;;;18.30;39.20;;;;;;463014;257;1076;-45
2021/03/29 01:57:08;;;;;;;;;;;18.30;39.20;;;;;;462976;257;2143;-45
2021/03/29 01:59:09;;;;;;;;;;;18.30;39.10;;;;;;462847;257;1071;-45
2021/03/29 02:01:11;;;;;;;;;;;18.30;39.10;;;;;;462823;257;1425;-45
2021/03/29 02:03:11;;;;;;;;;;;18.30;39.20;;;;;;462778;257;2407;-45
2021/03/29 02:05:13;;;;;;;;;;;18.30;39.20;;;;;;462839;257;1153;-45
2021/03/29 02:07:14;;;;;;;;;;;18.30;39.20;;;;;;462827;257;1227;-45
2021/03/29 02:09:16;;;;;;;;;;;18.30;39.20;;;;;;462789;257;1061;-45
2021/03/29 02:11:17;;;;;;;;;;;18.30;39.20;;;;;;463028;257;1441;-45
2021/03/29 02:13:18;;;;;;;;;;;18.30;39.20;;;;;;463147;257;1353;-45
2021/03/29 02:15:19;;;;;;;;;;;18.30;39.30;;;;;;462924;257;1113;-45
2021/03/29 02:17:21;;;;;;;;;;;18.20;39.20;;;;;;462878;257;2199;-45
2021/03/29 02:19:22;;;;;;;;;;;18.20;39.20;;;;;;462895;257;1093;-45
2021/03/29 02:21:23;;;;;;;;;;;18.20;39.20;;;;;;462766;257;1189;-45
2021/03/29 02:23:25;;;;;;;;;;;18.20;39.30;;;;;;462868;257;1167;-44
2021/03/29 02:25:26;;;;;;;;;;;18.20;39.30;;;;;;462806;257;1230;-45
2021/03/29 02:27:27;;;;;;;;;;;18.20;39.40;;;;;;462856;257;1206;-44
2021/03/29 02:29:28;;;;;;;;;;;18.20;39.40;;;;;;462754;257;1091;-45
2021/03/29 02:31:30;;;;;;;;;;;18.10;39.40;;;;;;462774;257;1506;-45
2021/03/29 02:33:31;;;;;;;;;;;18.10;39.40;;;;;;462813;257;1117;-44
2021/03/29 02:35:32;;;;;;;;;;;18.10;39.50;;;;;;462876;257;1143;-45
2021/03/29 02:37:34;;;;;;;;;;;18.10;39.50;;;;;;462907;257;2215;-45
2021/03/29 02:39:35;;;;;;;;;;;18.10;39.50;;;;;;463321;257;1068;-45
2021/03/29 02:41:36;;;;;;;;;;;18.10;39.40;;;;;;463144;257;1074;-45
2021/03/29 02:43:37;;;;;;;;;;;18.10;39.50;;;;;;463146;257;1057;-45
2021/03/29 02:45:39;;;;;;;;;;;18.00;39.50;;;;;;463256;257;1048;-45
2021/03/29 02:47:40;;;;;;;;;;;18.00;39.50;;;;;;463036;257;1051;-45
2021/03/29 02:49:41;;;;;;;;;;;18.10;39.50;;;;;;462873;257;1065;-45
2021/03/29 02:51:43;;;;;;;;;;;18.10;39.50;;;;;;462795;257;1219;-45
2021/03/29 02:53:44;;;;;;;;;;;18.10;39.50;;;;;;463022;257;1092;-45
2021/03/29 02:55:45;;;;;;;;;;;18.00;39.50;;;;;;463139;257;1046;-45
2021/03/29 02:57:46;;;;;;;;;;;18.00;39.60;;;;;;462840;257;2207;-45
2021/03/29 02:59:48;;;;;;;;;;;17.90;39.60;;;;;;463034;257;1103;-45
2021/03/29 03:01:49;;;;;;;;;;;17.90;39.70;;;;;;462867;257;1027;-45
2021/03/29 03:03:50;;;;;;;;;;;17.90;39.80;;;;;;462949;257;1090;-45
2021/03/29 03:05:51;;;;;;;;;;;17.90;39.80;;;;;;463199;257;1282;-45
2021/03/29 03:07:53;;;;;;;;;;;17.90;39.70;;;;;;462964;257;1172;-45
2021/03/29 03:09:54;;;;;;;;;;;18.10;39.50;;;;;;463012;257;1070;-45
2021/03/29 03:11:55;;;;;;;;;;;18.40;38.70;;;;;;462843;257;1119;-44
2021/03/29 03:13:57;;;;;;;;;;;18.80;37.90;;;;;;462930;257;1067;-45
2021/03/29 03:15:58;;;;;;;;;;;19.00;37.40;;;;;;463025;254;2199;-45
2021/03/29 03:17:59;;;;;;;;;;;19.20;37.10;;;;;;462855;257;1304;-45
2021/03/29 03:20:00;;;;;;;;;;;19.30;36.90;;;;;;462903;257;1062;-45
2021/03/29 03:22:02;;;;;;;;;;;19.40;36.70;;;;;;462821;257;1110;-45
2021/03/29 03:24:03;;;;;;;;;;;19.50;36.50;;;;;;462837;257;1090;-45
2021/03/29 03:26:04;;;;;;;;;;;19.60;36.40;;;;;;462902;257;1071;-45
2021/03/29 03:28:05;;;;;;;;;;;19.70;36.20;;;;;;462806;257;1065;-45
2021/03/29 03:30:07;;;;;;;;;;;19.70;36.20;;;;;;462902;257;1047;-45
2021/03/29 03:32:08;;;;;;;;;;;19.70;36.10;;;;;;462925;257;1141;-45
2021/03/29 03:34:09;;;;;;;;;;;19.80;36.00;;;;;;462930;257;1091;-45
2021/03/29 03:36:11;;;;;;;;;;;19.80;36.00;;;;;;462922;257;2215;-45
2021/03/29 03:38:12;;;;;;;;;;;19.90;35.90;;;;;;462875;257;1079;-45
2021/03/29 03:40:13;;;;;;;;;;;19.90;35.80;;;;;;462841;257;1199;-45
2021/03/29 03:42:15;;;;;;;;;;;19.90;35.70;;;;;;462801;257;1064;-45
2021/03/29 03:44:16;;;;;;;;;;;20.00;35.70;;;;;;462909;257;1139;-45
2021/03/29 03:46:17;;;;;;;;;;;20.00;35.60;;;;;;462814;257;1116;-45
2021/03/29 03:48:18;;;;;;;;;;;20.00;35.50;;;;;;462792;257;1087;-45
2021/03/29 03:50:20;;;;;;;;;;;20.10;35.50;;;;;;462803;257;1091;-45
2021/03/29 03:52:21;;;;;;;;;;;20.10;35.50;;;;;;462902;257;1203;-45
2021/03/29 03:54:22;;;;;;;;;;;20.20;35.50;;;;;;463123;257;1207;-45
2021/03/29 03:56:23;;;;;;;;;;;20.20;35.40;;;;;;462843;257;2140;-45
2021/03/29 03:58:25;;;;;;;;;;;20.20;35.40;;;;;;463099;257;1189;-45
2021/03/29 04:00:26;;;;;;;;;;;20.20;35.40;;;;;;463138;257;1199;-45
2021/03/29 04:02:27;;;;;;;;;;;20.20;35.30;;;;;;462923;257;1125;-45
2021/03/29 04:04:29;;;;;;;;;;;20.30;35.30;;;;;;462935;257;1294;-45
2021/03/29 04:06:30;;;;;;;;;;;20.30;35.20;;;;;;462989;257;1185;-45
2021/03/29 04:08:31;;;;;;;;;;;20.30;35.10;;;;;;462932;257;1067;-45
2021/03/29 04:10:41;;;;;;;;;;;20.30;35.10;;;;;;462829;257;1472;-45
2021/03/29 04:12:39;;;;;;;;;;;20.40;35.20;;;;;;462505;258;1953;-45
2021/03/29 04:14:40;;;;;;;;;;;20.40;35.20;;;;;;462777;257;1119;-45
2021/03/29 04:16:41;;;;;;;;;;;20.40;35.20;;;;;;462802;257;2147;-45
2021/03/29 04:18:42;;;;;;;;;;;20.40;35.10;;;;;;463011;257;1060;-45
2021/03/29 04:20:43;;;;;;;;;;;20.40;35.00;;;;;;463211;257;1593;-45
2021/03/29 04:22:45;;;;;;;;;;;20.40;35.00;;;;;;462844;257;1200;-45
2021/03/29 04:24:46;;;;;;;;;;;20.40;35.00;;;;;;462864;257;1124;-45
2021/03/29 04:26:47;;;;;;;;;;;20.50;35.10;;;;;;462834;257;1093;-45
2021/03/29 04:28:49;;;;;;;;;;;20.40;35.00;;;;;;462818;257;1091;-45
2021/03/29 04:30:50;;;;;;;;;;;20.50;35.00;;;;;;462980;257;1181;-45
2021/03/29 04:32:52;;;;;;;;;;;20.50;35.00;;;;;;462809;257;1150;-46
2021/03/29 04:34:53;;;;;;;;;;;20.50;34.90;;;;;;462773;257;1078;-45
2021/03/29 04:36:55;;;;;;;;;;;20.50;34.90;;;;;;462760;257;2223;-45
2021/03/29 04:38:56;;;;;;;;;;;20.60;35.00;;;;;;462743;257;1079;-45
2021/03/29 04:40:57;;;;;;;;;;;20.50;34.90;;;;;;462790;257;1278;-45
2021/03/29 04:42:58;;;;;;;;;;;20.60;34.90;;;;;;462812;257;1308;-45
2021/03/29 04:45:00;;;;;;;;;;;20.60;34.90;;;;;;462741;257;1090;-45
2021/03/29 04:47:01;;;;;;;;;;;20.60;34.90;;;;;;462571;257;1201;-45
2021/03/29 04:49:02;;;;;;;;;;;20.60;34.80;;;;;;462920;257;1087;-45
2021/03/29 04:51:03;;;;;;;;;;;20.60;34.90;;;;;;462788;257;1174;-45
2021/03/29 04:53:05;;;;;;;;;;;20.60;34.80;;;;;;462782;257;1139;-45
2021/03/29 04:55:06;;;;;;;;;;;20.60;34.80;;;;;;462708;257;1087;-45
2021/03/29 04:57:07;;;;;;;;;;;20.60;34.80;;;;;;462637;257;2205;-45
2021/03/29 04:59:09;;;;;;;;;;;20.70;34.80;;;;;;462915;257;1075;-45
2021/03/29 05:01:10;;;;;;;;;;;20.70;34.80;;;;;;462613;257;1329;-45
2021/03/29 05:03:11;;;;;;;;;;;20.70;34.80;;;;;;462546;257;1325;-45
2021/03/29 05:05:12;;;;;;;;;;;20.70;34.80;;;;;;462540;257;1078;-45
2021/03/29 05:07:14;;;;;;;;;;;20.70;34.80;;;;;;462572;257;1290;-45
2021/03/29 05:09:15;;;;;;;;;;;20.70;34.80;;;;;;462626;257;1095;-45
2021/03/29 05:11:16;;;;;;;;;;;20.70;34.70;;;;;;462680;257;1161;-45
2021/03/29 05:13:17;;;;;;;;;;;20.70;34.70;;;;;;462691;257;1049;-45
2021/03/29 05:15:19;;;;;;;;;;;20.70;34.70;;;;;;462763;257;1078;-45
2021/03/29 05:17:20;;;;;;;;;;;20.70;34.80;;;;;;462739;257;2207;-45
2021/03/29 05:19:21;;;;;;;;;;;20.70;34.70;;;;;;462796;257;1065;-45
2021/03/29 05:21:23;;;;;;;;;;;20.80;34.80;;;;;;462815;257;1058;-45
2021/03/29 05:23:24;;;;;;;;;;;20.80;34.80;;;;;;462762;257;1139;-45
2021/03/29 05:25:25;;;;;;;;;;;20.80;34.70;;;;;;462717;257;1092;-45
2021/03/29 05:27:26;;;;;;;;;;;20.80;34.70;;;;;;462711;257;1073;-45
2021/03/29 05:29:28;;;;;;;;;;;20.80;34.70;;;;;;462591;257;1169;-45
2021/03/29 05:31:29;;;;;;;;;;;20.80;34.60;;;;;;462540;257;1142;-45
2021/03/29 05:33:30;;;;;;;;;;;20.80;34.60;;;;;;462484;257;1364;-45
2021/03/29 05:35:32;;;;;;;;;;;20.80;34.50;;;;;;462473;257;1126;-45
2021/03/29 05:37:33;;;;;;;;;;;20.90;34.60;;;;;;462634;257;2167;-45
2021/03/29 05:39:34;;;;;;;;;;;20.90;34.60;;;;;;462728;257;1107;-45
2021/03/29 05:41:35;;;;;;;;;;;20.90;34.60;;;;;;462688;257;1099;-45
2021/03/29 05:43:37;;;;;;;;;;;20.90;34.60;;;;;;462632;257;1130;-45
2021/03/29 05:45:38;;;;;;;;;;;20.90;34.50;;;;;;462646;257;1197;-45
2021/03/29 05:47:39;;;;;;;;;;;20.90;34.50;;;;;;462596;257;1282;-45
2021/03/29 05:49:41;;;;;;;;;;;21.00;34.50;;;;;;462574;257;1137;-45
2021/03/29 05:51:42;;;;;;;;;;;21.00;34.50;;;;;;462549;257;1393;-46
2021/03/29 05:53:43;;;;;;;;;;;20.90;34.50;;;;;;462629;257;1208;-45
2021/03/29 05:55:46;;;;;;;;;;;21.00;34.50;;;;;;462617;257;1144;-45
2021/03/29 05:58:06;;;;;;;;;;;21.00;34.50;;;;;;462473;257;2219;-45
2021/03/29 05:59:55;;;;;;;;;;;20.90;34.50;;;;;;461679;258;1412;-45
2021/03/29 06:01:56;;;;;;;;;;;20.90;34.40;;;;;;462457;257;1580;-45
2021/03/29 06:03:57;;;;;;;;;;;20.90;34.40;;;;;;462596;257;1245;-45
2021/03/29 06:05:59;;;;;;;;;;;21.00;34.40;;;;;;462599;257;1070;-46
2021/03/29 06:08:00;;;;;;;;;;;21.00;34.40;;;;;;462566;257;1221;-45
2021/03/29 06:10:01;;;;;;;;;;;21.00;34.50;;;;;;462619;257;1064;-45
2021/03/29 06:12:03;;;;;;;;;;;21.00;34.40;;;;;;462578;257;1134;-45
2021/03/29 06:14:04;;;;;;;;;;;21.00;34.40;;;;;;462410;257;1242;-45
2021/03/29 06:16:05;;;;;;;;;;;21.00;34.50;;;;;;462340;257;1080;-45
2021/03/29 06:18:06;;;;;;;;;;;21.00;34.40;;;;;;462472;257;2179;-45
2021/03/29 06:20:08;;;;;;;;;;;21.00;34.40;;;;;;462372;257;1099;-45
2021/03/29 06:22:09;;;;;;;;;;;21.00;34.40;;;;;;462259;257;1121;-45
2021/03/29 06:24:10;;;;;;;;;;;21.00;34.40;;;;;;462414;257;1256;-45
2021/03/29 06:26:12;;;;;;;;;;;21.00;34.40;;;;;;462483;257;1253;-45
2021/03/29 06:28:13;;;;;;;;;;;21.00;34.40;;;;;;462495;257;1089;-45
2021/03/29 06:30:14;;;;;;;;;;;21.00;34.40;;;;;;462479;257;1152;-45
2021/03/29 06:32:15;;;;;;;;;;;21.00;34.40;;;;;;462498;257;1274;-45
2021/03/29 06:34:17;;;;;;;;;;;21.00;34.40;;;;;;462286;257;1139;-45
2021/03/29 06:36:18;;;;;;;;;;;21.10;34.40;;;;;;462252;257;1394;-45
2021/03/29 06:38:19;;;;;;;;;;;21.00;34.40;;;;;;462148;257;2203;-45
2021/03/29 06:40:20;;;;;;;;;;;21.10;34.40;;;;;;462404;257;1064;-45
2021/03/29 06:42:22;;;;;;;;;;;21.10;34.40;;;;;;462359;257;1151;-45
2021/03/29 06:44:23;;;;;;;;;;;21.10;34.40;;;;;;462206;257;1127;-45
2021/03/29 06:46:24;;;;;;;;;;;21.10;34.30;;;;;;462221;257;1279;-45
2021/03/29 06:48:26;;;;;;;;;;;21.10;34.30;;;;;;462227;257;1108;-45
2021/03/29 06:50:27;;;;;;;;;;;21.10;34.40;;;;;;462215;257;1230;-45
2021/03/29 06:52:28;;;;;;;;;;;21.10;34.40;;;;;;462112;257;1659;-45
2021/03/29 06:54:29;;;;;;;;;;;21.10;34.30;;;;;;462303;257;1187;-45
2021/03/29 06:56:31;;;;;;;;;;;21.10;34.40;;;;;;462308;257;1381;-45
2021/03/29 06:58:32;;;;;;;;;;;21.10;34.30;;;;;;462261;257;2155;-45
2021/03/29 07:00:33;;;;;;;;;;;21.10;34.30;;;;;;462311;257;1088;-45
2021/03/29 07:02:35;;;;;;;;;;;21.10;34.30;;;;;;462235;258;1160;-45
2021/03/29 07:04:37;;;;;;;;;;;21.10;34.30;;;;;;462121;257;1133;-45
2021/03/29 07:06:37;;;;;;;;;;;21.10;34.30;;;;;;462103;258;1956;-45
2021/03/29 07:08:39;;;;;;;;;;;21.10;34.30;;;;;;462327;257;1184;-45
2021/03/29 07:10:40;;;;;;;;;;;21.20;34.30;;;;;;462142;257;1113;-45
2021/03/29 07:12:41;;;;;;;;;;;21.20;34.30;;;;;;462564;257;1317;-45
2021/03/29 07:14:43;;;;;;;;;;;21.20;34.30;;;;;;462205;257;1074;-45
2021/03/29 07:16:44;;;;;;;;;;;21.20;34.30;;;;;;462374;257;1188;-45
2021/03/29 07:18:45;;;;;;;;;;;21.20;34.20;;;;;;462109;257;2198;-45
2021/03/29 07:20:46;;;;;;;;;;;21.20;34.30;;;;;;462155;257;1294;-45
2021/03/29 07:22:48;;;;;;;;;;;21.20;34.20;;;;;;461944;257;1278;-45
2021/03/29 07:24:49;;;;;;;;;;;21.20;34.20;;;;;;462160;257;1213;-45
2021/03/29 07:26:50;;;;;;;;;;;21.20;34.20;;;;;;462173;257;1203;-45
2021/03/29 07:28:52;;;;;;;;;;;21.20;34.20;;;;;;462693;257;1139;-45
2021/03/29 07:30:54;;;;;;;;;;;21.20;34.20;;;;;;462234;257;1194;-45
2021/03/29 07:32:54;;;;;;;;;;;21.20;34.10;;;;;;462114;258;1391;-45
2021/03/29 07:34:55;;;;;;;;;;;21.20;34.10;;;;;;462303;257;1110;-45
2021/03/29 07:36:57;;;;;;;;;;;21.20;34.10;;;;;;462254;257;1302;-45
2021/03/29 07:38:58;;;;;;;;;;;21.20;34.10;;;;;;462161;257;2160;-45
2021/03/29 07:40:59;;;;;;;;;;;21.20;34.10;;;;;;462221;257;1122;-45
2021/03/29 07:43:01;;;;;;;;;;;21.20;34.10;;;;;;461781;257;1191;-45
2021/03/29 07:45:02;;;;;;;;;;;21.30;34.10;;;;;;462213;257;1241;-45
2021/03/29 07:47:03;;;;;;;;;;;21.20;34.00;;;;;;462238;257;1129;-45
2021/03/29 07:49:04;;;;;;;;;;;21.30;34.10;;;;;;462261;257;1090;-45
2021/03/29 07:51:06;;;;;;;;;;;21.30;34.10;;;;;;462267;257;1128;-45
2021/03/29 07:53:07;;;;;;;;;;;21.30;34.10;;;;;;462319;257;1093;-45
2021/03/29 07:55:08;;;;;;;;;;;21.30;34.10;;;;;;462300;257;1239;-45
2021/03/29 07:57:10;;;;;;;;;;;21.30;34.10;;;;;;462262;257;1099;-45
2021/03/29 07:59:12;;;;;;;;;;;21.30;34.00;;;;;;462147;257;2164;-45
2021/03/29 08:01:13;;;;;;;;;;;21.30;34.00;;;;;;462098;257;1990;-45
2021/03/29 08:03:14;;;;;;;;;;;21.30;34.00;;;;;;462078;257;1190;-45
2021/03/29 08:05:16;;;;;;;;;;;21.30;34.00;;;;;;462047;257;1203;-45
2021/03/29 08:07:17;;;;;;;;;;;21.30;34.10;;;;;;461988;257;1167;-45
2021/03/29 08:09:18;;;;;;;;;;;21.30;34.00;;;;;;462026;257;1212;-45
2021/03/29 08:11:20;;;;;;;;;;;21.30;34.00;;;;;;462272;257;1441;-45
2021/03/29 08:13:21;;;;;;;;;;;21.30;34.00;;;;;;462156;257;1185;-45
2021/03/29 08:15:23;;;;;;;;;;;21.30;34.00;;;;;;462131;257;1130;-45
2021/03/29 08:17:24;;;;;;;;;;;21.30;34.00;;;;;;462131;257;1120;-45
2021/03/29 08:19:25;;;;;;;;;;;21.30;34.00;;;;;;462174;257;2211;-45
2021/03/29 08:21:27;;;;;;;;;;;21.30;34.00;;;;;;462028;257;1347;-45
2021/03/29 08:23:28;;;;;;;;;;;21.40;34.00;;;;;;462088;257;1127;-45
2021/03/29 08:25:29;;;;;;;;;;;21.30;34.00;;;;;;462021;257;1280;-45
2021/03/29 08:27:30;;;;;;;;;;;21.30;34.00;;;;;;461868;257;1221;-45
2021/03/29 08:29:33;;;;;;;;;;;21.30;34.00;;;;;;461976;257;1186;-45
2021/03/29 08:31:33;;;;;;;;;;;21.30;33.90;;;;;;461900;257;1530;-45
2021/03/29 08:33:35;;;;;;;;;;;21.30;34.00;;;;;;462303;257;1093;-46
2021/03/29 08:35:37;;;;;;;;;;;21.40;34.00;;;;;;462027;254;1223;-45
2021/03/29 08:37:40;;;;;;;;;;;21.40;34.00;;;;;;462198;257;2356;-45
2021/03/29 08:39:40;;;;;;;;;;;21.40;34.10;;;;;;461957;258;2186;-45
2021/03/29 08:41:41;;;;;;;;;;;21.30;34.00;;;;;;462027;257;1239;-45
2021/03/29 08:43:42;;;;;;;;;;;21.40;34.00;;;;;;462143;257;1157;-45
2021/03/29 08:45:44;;;;;;;;;;;21.40;34.00;;;;;;461430;257;1216;-45
2021/03/29 08:47:45;;;;;;;;;;;21.40;34.00;;;;;;462216;257;1295;-45
2021/03/29 08:49:46;;;;;;;;;;;21.40;34.10;;;;;;462176;257;1636;-45
2021/03/29 08:51:47;;;;;;;;;;;21.40;34.00;;;;;;462238;257;1375;-45
2021/03/29 08:53:49;;;;;;;;;;;21.30;34.00;;;;;;462124;257;1125;-45
2021/03/29 08:55:51;;;;;;;;;;;21.40;34.00;;;;;;462021;257;1219;-45
2021/03/29 08:57:51;;;;;;;;;;;21.40;34.00;;;;;;461842;257;2160;-45
2021/03/29 08:59:53;;;;;;;;;;;21.40;34.00;;;;;;461690;257;1253;-45
2021/03/29 09:01:54;;;;;;;;;;;21.40;34.00;;;;;;462064;257;1184;-45
2021/03/29 09:03:55;;;;;;;;;;;21.40;34.00;;;;;;462093;257;1130;-45
2021/03/29 09:05:57;;;;;;;;;;;21.40;34.00;;;;;;462192;257;1153;-45
2021/03/29 09:07:58;;;;;;;;;;;21.40;34.00;;;;;;462144;257;1364;-45
2021/03/29 09:09:59;;;;;;;;;;;21.40;33.90;;;;;;462064;257;1188;-45
2021/03/29 09:12:01;;;;;;;;;;;21.40;34.00;;;;;;462149;257;1346;-45
2021/03/29 09:14:02;;;;;;;;;;;21.40;33.90;;;;;;462064;257;1182;-45
2021/03/29 09:16:03;;;;;;;;;;;21.40;34.00;;;;;;462003;257;1233;-45
2021/03/29 09:18:05;;;;;;;;;;;21.40;34.00;;;;;;462010;257;2199;-45
2021/03/29 09:20:06;;;;;;;;;;;21.50;33.80;;;;;;462158;257;1160;-45
2021/03/29 09:22:07;;;;;;;;;;;21.40;33.90;;;;;;462091;257;1183;-45
2021/03/29 09:24:09;;;;;;;;;;;21.00;34.60;;;;;;461970;257;1418;-45
2021/03/29 09:26:10;;;;;;;;;;;20.50;35.50;;;;;;461924;257;1229;-45
2021/03/29 09:28:13;;;;;;;;;;;20.10;36.10;;;;;;462007;257;1151;-45
2021/03/29 09:30:12;;;;;;;;;;;19.90;36.70;;;;;;461796;257;1948;-45
2021/03/29 09:32:14;;;;;;;;;;;19.70;37.00;;;;;;462111;257;1213;-45
2021/03/29 09:34:15;;;;;;;;;;;19.60;37.20;;;;;;462025;257;1469;-45
2021/03/29 09:36:17;;;;;;;;;;;19.50;37.40;;;;;;462022;257;1261;-45
2021/03/29 09:38:18;;;;;;;;;;;19.40;37.60;;;;;;461834;257;2143;-45
2021/03/29 09:40:19;;;;;;;;;;;19.30;37.80;;;;;;461975;257;1336;-44
2021/03/29 09:42:20;;;;;;;;;;;19.30;37.90;;;;;;461948;257;1276;-45
2021/03/29 09:44:24;;;;;;;;;;;19.20;38.00;;;;;;461958;257;1215;-45
2021/03/29 09:46:23;;;;;;;;;;;19.20;38.00;;;;;;461776;258;2008;-45
2021/03/29 09:48:24;;;;;;;;;;;19.20;38.00;;;;;;462070;257;1252;-45
2021/03/29 09:50:25;;;;;;;;;;;19.10;38.00;;;;;;461999;257;1240;-45
2021/03/29 09:52:27;;;;;;;;;;;19.10;38.10;;;;;;462005;257;1208;-45
2021/03/29 09:54:28;;;;;;;;;;;19.00;38.20;;;;;;462184;257;1163;-45
2021/03/29 09:56:29;;;;;;;;;;;19.00;38.30;;;;;;462115;257;1397;-45
2021/03/29 09:58:31;;;;;;;;;;;18.90;38.30;;;;;;462169;257;2152;-45
2021/03/29 10:00:32;;;;;;;;;;;19.00;38.40;;;;;;462151;257;2060;-45
2021/03/29 10:02:35;;;;;;;;;;;18.90;38.40;;;;;;462135;257;1197;-45
2021/03/29 10:04:35;;;;;;;;;;;19.00;38.40;;;;;;462056;258;2259;-45
2021/03/29 10:06:36;;;;;;;;;;;18.90;38.40;;;;;;462152;257;1318;-45
2021/03/29 10:08:37;;;;;;;;;;;18.80;38.50;;;;;;462051;257;1176;-45
2021/03/29 10:10:38;;;;;;;;;;;18.90;38.60;;;;;;462190;257;1397;-45
2021/03/29 10:12:40;;;;;;;;;;;18.90;38.50;;;;;;462097;257;1261;-45
2021/03/29 10:14:41;;;;;;;;;;;18.80;38.50;;;;;;462132;257;1179;-44
2021/03/29 10:16:42;;;;;;;;;;;18.80;38.50;;;;;;462131;257;1107;-45
2021/03/29 10:18:44;;;;;;;;;;;18.80;38.60;;;;;;462097;257;2203;-45
2021/03/29 10:20:45;;;;;;;;;;;18.80;38.70;;;;;;461707;257;1556;-45
2021/03/29 10:22:46;;;;;;;;;;;18.70;38.70;;;;;;461618;257;1077;-45
2021/03/29 10:24:47;;;;;;;;;;;18.80;38.60;;;;;;461740;257;1206;-45
2021/03/29 10:26:49;;;;;;;;;;;18.80;38.60;;;;;;461978;257;1171;-45
2021/03/29 10:28:50;;;;;;;;;;;18.80;38.60;;;;;;461922;257;1075;-45
2021/03/29 10:30:51;;;;;;;;;;;18.70;38.60;;;;;;462062;257;1110;-45
2021/03/29 10:32:53;;;;;;;;;;;18.70;38.70;;;;;;462085;257;1091;-45
2021/03/29 10:34:54;;;;;;;;;;;18.70;38.70;;;;;;462084;257;1109;-45
2021/03/29 10:36:55;;;;;;;;;;;18.70;38.70;;;;;;462113;257;1097;-45
2021/03/29 10:38:56;;;;;;;;;;;18.70;38.80;;;;;;462015;257;2207;-45
2021/03/29 10:40:58;;;;;;;;;;;18.60;38.70;;;;;;462102;257;1416;-45
2021/03/29 10:42:59;;;;;;;;;;;18.60;38.80;;;;;;462103;257;1346;-45
2021/03/29 10:45:00;;;;;;;;;;;18.60;38.70;;;;;;462047;257;1103;-45
2021/03/29 10:47:01;;;;;;;;;;;18.60;38.70;;;;;;462014;257;1181;-45
2021/03/29 10:49:03;;;;;;;;;;;18.60;38.70;;;;;;462178;257;1102;-45
2021/03/29 10:51:04;;;;;;;;;;;18.60;38.80;;;;;;462111;254;1372;-45
2021/03/29 10:53:05;;;;;;;;;;;18.60;38.80;;;;;;462085;257;1274;-44
2021/03/29 10:55:07;;;;;;;;;;;18.50;38.80;;;;;;462089;257;1309;-45
2021/03/29 10:57:08;;;;;;;;;;;18.60;38.80;;;;;;462053;257;1257;-45
2021/03/29 10:59:09;;;;;;;;;;;18.50;38.80;;;;;;462169;257;2191;-45
2021/03/29 11:01:10;;;;;;;;;;;18.50;38.80;;;;;;462188;257;1214;-45
2021/03/29 11:03:12;;;;;;;;;;;18.50;38.70;;;;;;462306;258;1127;-45
2021/03/29 11:05:14;;;;;;;;;;;18.50;38.80;;;;;;461932;257;1232;-45
2021/03/29 11:07:14;;;;;;;;;;;18.50;38.70;;;;;;461849;258;1443;-45
2021/03/29 11:09:16;;;;;;;;;;;18.60;38.70;;;;;;462005;257;1338;-45
2021/03/29 11:11:18;;;;;;;;;;;18.50;38.70;;;;;;462089;257;1308;-45
2021/03/29 11:13:19;;;;;;;;;;;18.50;38.80;;;;;;461560;257;1156;-45
2021/03/29 11:15:20;;;;;;;;;;;18.50;38.90;;;;;;462004;257;1141;-45
2021/03/29 11:17:25;;;;;;;;;;;18.50;38.80;;;;;;462280;257;1264;-45
2021/03/29 11:19:23;;;;;;;;;;;18.50;38.80;;;;;;461865;257;2223;-45
2021/03/29 11:21:24;;;;;;;;;;;18.50;38.80;;;;;;462085;257;1332;-45
2021/03/29 11:23:26;;;;;;;;;;;18.40;38.80;;;;;;462094;257;1201;-45
2021/03/29 11:25:27;;;;;;;;;;;18.40;38.80;;;;;;462181;257;1253;-45
2021/03/29 11:27:28;;;;;;;;;;;18.40;38.80;;;;;;462347;257;1433;-45
2021/03/29 11:29:30;;;;;;;;;;;18.40;38.90;;;;;;462110;257;1118;-45
2021/03/29 11:31:31;;;;;;;;;;;18.40;38.90;;;;;;461946;257;1192;-45
2021/03/29 11:33:32;;;;;;;;;;;18.40;38.80;;;;;;461969;257;1323;-45
2021/03/29 11:35:34;;;;;;;;;;;18.40;38.90;;;;;;462008;257;1125;-45
2021/03/29 11:37:35;;;;;;;;;;;18.40;38.90;;;;;;461974;257;1218;-45
2021/03/29 11:39:36;;;;;;;;;;;18.40;38.90;;;;;;462063;257;2195;-45
2021/03/29 11:41:38;;;;;;;;;;;18.40;38.90;;;;;;462100;257;1274;-45
2021/03/29 11:43:39;;;;;;;;;;;18.40;38.80;;;;;;462114;257;1501;-44
2021/03/29 11:45:40;;;;;;;;;;;18.40;38.90;;;;;;462065;257;1091;-45
2021/03/29 11:47:42;;;;;;;;;;;18.40;39.00;;;;;;462084;257;1206;-45
2021/03/29 11:49:43;;;;;;;;;;;18.30;38.90;;;;;;462113;257;1108;-45
2021/03/29 11:51:44;;;;;;;;;;;18.40;38.90;;;;;;462132;257;1343;-45
2021/03/29 11:53:46;;;;;;;;;;;18.30;38.80;;;;;;462077;257;1121;-45
2021/03/29 11:55:47;;;;;;;;;;;18.30;38.90;;;;;;462110;257;1214;-45
2021/03/29 11:57:49;;;;;;;;;;;18.30;38.90;;;;;;461957;257;1281;-45